Time;durP1;ratioP1;P1;durP2;ratioP2;P2;SDS_P1;SDS_P2;PMS_P1;PMS_P2;Temp;Humidity;BMP_temperature;BMP_pressure;BME280_temperature;BME280_humidity;BME280_pressure;Samples;Min_cycle;Max_cycle;Signal;HPM_P1;HPM_P2
2022/12/07 00:00:04;;;;;;;6.50;6.00;;;7.50;53.20;;;;;;20584;6833;310723;-75
2022/12/07 00:02:30;;;;;;;6.62;6.20;;;7.40;53.10;;;;;;20603;6819;308317;-75
2022/12/07 00:04:55;;;;;;;6.43;6.00;;;7.60;52.80;;;;;;20652;6808;336607;-75
2022/12/07 00:07:21;;;;;;;6.57;6.17;;;7.80;52.40;;;;;;20664;6808;278051;-75
2022/12/07 00:09:46;;;;;;;5.55;5.25;;;7.90;52.00;;;;;;20868;6808;116942;-76
2022/12/07 00:12:12;;;;;;;5.30;4.87;;;7.70;52.20;;;;;;20852;6808;119151;-77
2022/12/07 00:14:37;;;;;;;5.20;4.80;;;7.40;52.90;;;;;;20868;6808;118415;-75
2022/12/07 00:17:03;;;;;;;5.70;5.30;;;7.10;53.50;;;;;;20800;6830;116979;-75
2022/12/07 00:19:29;;;;;;;6.07;5.68;;;6.80;54.00;;;;;;20575;6833;338102;-75
2022/12/07 00:21:54;;;;;;;6.78;6.28;;;6.90;54.10;;;;;;20617;6819;334745;-75
2022/12/07 00:24:20;;;;;;;6.10;5.78;;;7.20;53.60;;;;;;20644;6809;278700;-76
2022/12/07 00:26:45;;;;;;;5.37;4.97;;;7.50;53.10;;;;;;20804;6830;118506;-75
2022/12/07 00:29:18;;;;;;;6.27;5.83;;;7.40;53.10;;;;;;20630;6819;326681;-75
2022/12/07 00:31:43;;;;;;;5.95;5.65;;;7.40;53.20;;;;;;20660;6809;336122;-75
2022/12/07 00:34:16;;;;;;;5.87;5.47;;;7.60;53.40;;;;;;20566;6830;277609;-76
2022/12/07 00:36:41;;;;;;;6.25;5.85;;;7.70;52.30;;;;;;20621;6819;277622;-75
2022/12/07 00:39:08;;;;;;;6.10;5.70;;;8.00;51.90;;;;;;20666;6809;306956;-75
2022/12/07 00:41:33;;;;;;;5.50;5.10;;;8.00;51.80;;;;;;20785;6830;117406;-75
2022/12/07 00:43:59;;;;;;;6.12;5.72;;;7.80;52.20;;;;;;20622;6819;278478;-75
2022/12/07 00:46:25;;;;;;;5.93;5.53;;;7.80;52.40;;;;;;20648;6809;278346;-77
2022/12/07 00:48:52;;;;;;;6.17;5.77;;;7.80;52.40;;;;;;20652;6809;306925;-75
2022/12/07 00:51:18;;;;;;;6.17;5.77;;;8.10;52.10;;;;;;20589;6830;310975;-75
2022/12/07 00:53:44;;;;;;;5.30;4.90;;;8.10;52.10;;;;;;20837;6819;117003;-75
2022/12/07 00:56:21;;;;;;;6.18;5.78;;;7.90;52.30;;;;;;20645;6807;311509;-76
2022/12/07 00:58:56;;;;;;;5.77;5.37;;;7.80;52.50;;;;;;21030;6714;116781;-75
2022/12/07 01:01:35;;;;;;;5.50;5.10;;;7.60;52.80;;;;;;20989;6724;116745;-75
2022/12/07 01:04:07;;;;;;;5.20;4.80;;;7.30;53.30;;;;;;20990;6716;117185;-75
2022/12/07 01:06:43;;;;;;;5.73;5.23;;;7.00;53.80;;;;;;20844;6716;117135;-75
2022/12/07 01:09:19;;;;;;;6.47;5.97;;;6.80;54.30;;;;;;20770;6725;332911;-75
2022/12/07 01:11:54;;;;;;;5.63;5.23;;;6.90;54.60;;;;;;21018;6715;116699;-75
2022/12/07 01:14:30;;;;;;;7.00;6.40;;;6.90;54.40;;;;;;20777;6717;305844;-75
2022/12/07 01:17:06;;;;;;;5.77;5.37;;;7.00;54.20;;;;;;20985;6715;117322;-75
2022/12/07 01:19:42;;;;;;;6.73;6.33;;;7.00;54.20;;;;;;20767;6721;306089;-76
2022/12/07 01:22:17;;;;;;;6.80;6.20;;;7.10;54.30;;;;;;20897;6720;117315;-76
2022/12/07 01:24:54;;;;;;;7.07;6.47;;;7.20;54.30;;;;;;20661;6744;339704;-77
2022/12/07 01:27:29;;;;;;;5.77;5.37;;;7.20;54.30;;;;;;20881;6759;117068;-76
2022/12/07 01:30:06;;;;;;;6.73;6.23;;;7.10;54.30;;;;;;20697;6727;306900;-76
2022/12/07 01:32:42;;;;;;;7.30;6.70;;;7.20;54.20;;;;;;20696;6742;306527;-76
2022/12/07 01:35:18;;;;;;;5.67;5.37;;;7.40;53.80;;;;;;20792;6761;117176;-77
2022/12/07 01:37:53;;;;;;;5.70;5.30;;;7.30;53.70;;;;;;20889;6755;117938;-76
2022/12/07 01:40:29;;;;;;;5.40;4.90;;;6.80;54.80;;;;;;20869;6749;117207;-73
2022/12/07 01:43:15;;;;;;;6.65;6.15;;;6.70;54.70;;;;;;20665;6747;277657;-75
2022/12/07 01:45:51;;;;;;;6.80;6.30;;;6.90;54.90;;;;;;20491;6774;307413;-75
2022/12/07 01:48:37;;;;;;;6.30;5.90;;;7.20;54.40;;;;;;20612;6760;280029;-75
2022/12/07 01:51:13;;;;;;;6.63;6.10;;;7.50;53.80;;;;;;20655;6757;308729;-75
2022/12/07 01:53:48;;;;;;;6.73;6.30;;;7.70;53.20;;;;;;20676;6764;278441;-75
2022/12/07 01:56:25;;;;;;;7.00;6.47;;;8.00;52.50;;;;;;20501;6749;338859;-75
2022/12/07 01:59:00;;;;;;;5.53;5.13;;;8.00;52.50;;;;;;20906;6763;117050;-75
2022/12/07 02:01:36;;;;;;;5.20;4.80;;;7.70;52.70;;;;;;20887;6746;116788;-75
2022/12/07 02:04:11;;;;;;;6.97;6.37;;;7.40;54.20;;;;;;20711;6731;336793;-76
2022/12/07 02:06:47;;;;;;;6.20;5.70;;;7.40;53.90;;;;;;20726;6741;122766;-75
2022/12/07 02:09:23;;;;;;;6.80;6.30;;;7.30;54.00;;;;;;20757;6723;277016;-75
2022/12/07 02:11:59;;;;;;;6.53;6.13;;;7.60;53.60;;;;;;20654;6746;307613;-74
2022/12/07 02:14:34;;;;;;;6.17;5.67;;;7.60;53.60;;;;;;20905;6736;116603;-75
2022/12/07 02:17:36;;;;;;;5.70;5.23;;;7.50;53.70;;;;;;20936;6734;118991;-75
2022/12/07 02:20:39;;;;;;;7.00;6.47;;;7.20;54.20;;;;;;20720;6728;277087;-75
2022/12/07 02:23:25;;;;;;;7.50;6.90;;;7.50;54.30;;;;;;20620;6765;278691;-74
2022/12/07 02:26:29;;;;;;;7.20;6.70;;;7.50;54.30;;;;;;20556;6750;280680;-74
2022/12/07 02:29:17;;;;;;;7.60;7.07;;;7.70;53.20;;;;;;20691;6750;279945;-76
2022/12/07 02:32:06;;;;;;;7.50;7.00;;;7.90;52.80;;;;;;20925;6735;116881;-75
2022/12/07 02:34:52;;;;;;;7.90;7.40;;;7.50;53.40;;;;;;20737;6726;276679;-75
2022/12/07 02:37:31;;;;;;;8.00;7.40;;;7.50;53.40;;;;;;20694;6738;278051;-75
2022/12/07 02:40:29;;;;;;;7.37;6.80;;;7.70;53.10;;;;;;20900;6753;120933;-74
2022/12/07 02:43:16;;;;;;;10.10;9.30;;;7.50;53.30;;;;;;20696;6737;319984;-75
2022/12/07 02:45:52;;;;;;;8.90;8.10;;;7.30;53.60;;;;;;20817;6735;118125;-74
2022/12/07 02:48:28;;;;;;;10.87;10.07;;;7.20;53.50;;;;;;20694;6735;306506;-74
2022/12/07 02:51:06;;;;;;;9.70;8.80;;;7.30;53.60;;;;;;20928;6735;120900;-74
2022/12/07 02:53:42;;;;;;;11.50;10.67;;;7.20;53.60;;;;;;20672;6750;277630;-74
2022/12/07 02:56:45;;;;;;;11.30;10.40;;;7.20;54.20;;;;;;20431;6775;340674;-74
2022/12/07 02:59:33;;;;;;;9.70;8.90;;;7.40;53.10;;;;;;20243;6808;121764;-75
2022/12/07 03:02:33;;;;;;;11.77;10.88;;;7.20;53.20;;;;;;20641;6752;307061;-75
2022/12/07 03:05:42;;;;;;;10.20;9.30;;;7.20;53.30;;;;;;19780;7094;122207;-75
2022/12/07 03:08:20;;;;;;;9.70;8.90;;;6.90;53.30;;;;;;20760;6811;128324;-75
2022/12/07 03:10:59;;;;;;;9.23;8.47;;;6.60;54.10;;;;;;20884;6752;116951;-75
2022/12/07 03:13:37;;;;;;;8.10;7.50;;;6.40;54.60;;;;;;20920;6737;116871;-75
2022/12/07 03:16:20;;;;;;;8.60;8.00;;;6.20;55.00;;;;;;20508;6752;308841;-75
2022/12/07 03:18:55;;;;;;;9.93;9.23;;;6.40;54.20;;;;;;20715;6737;278662;-75
2022/12/07 03:21:31;;;;;;;10.43;9.73;;;6.80;52.80;;;;;;20666;6751;277614;-76
2022/12/07 03:24:06;;;;;;;11.17;10.27;;;7.10;52.70;;;;;;20698;6736;309442;-76
2022/12/07 03:26:42;;;;;;;10.90;10.20;;;7.30;52.60;;;;;;20543;6736;279548;-78
2022/12/07 03:29:31;;;;;;;10.83;10.07;;;7.50;52.20;;;;;;20716;6736;277142;-79
2022/12/07 03:32:07;;;;;;;9.13;8.40;;;7.50;52.20;;;;;;20898;6736;118316;-77
2022/12/07 03:34:46;;;;;;;10.40;9.60;;;7.30;52.50;;;;;;20700;6736;277116;-78
2022/12/07 03:37:31;;;;;;;10.87;10.07;;;7.20;52.90;;;;;;20718;6736;277685;-77
2022/12/07 03:40:39;;;;;;;9.60;8.80;;;7.40;52.90;;;;;;20906;6737;117608;-76
2022/12/07 03:43:15;;;;;;;10.47;9.67;;;7.20;53.00;;;;;;19570;7110;320395;-76
2022/12/07 03:46:01;;;;;;;8.07;7.43;;;7.20;53.00;;;;;;19688;7111;123210;-75
2022/12/07 03:48:42;;;;;;;11.00;10.03;;;7.00;53.10;;;;;;19712;6823;279116;-75
2022/12/07 03:51:26;;;;;;;9.70;9.00;;;7.00;53.40;;;;;;20832;6766;118665;-75
2022/12/07 03:54:02;;;;;;;8.97;8.27;;;6.90;53.60;;;;;;20812;6769;117309;-75
2022/12/07 03:56:38;;;;;;;10.60;9.83;;;6.60;54.30;;;;;;20501;6770;308674;-75
2022/12/07 03:59:14;;;;;;;11.35;10.55;;;7.00;54.50;;;;;;20716;6741;279144;-75
2022/12/07 04:01:54;;;;;;;10.53;9.83;;;6.90;53.90;;;;;;20643;6758;306777;-75
2022/12/07 04:04:29;;;;;;;8.80;8.00;;;7.20;53.10;;;;;;20845;6754;117659;-75
2022/12/07 04:07:05;;;;;;;9.70;9.00;;;7.00;53.20;;;;;;20608;6769;307597;-75
2022/12/07 04:09:41;;;;;;;10.30;9.50;;;7.00;53.20;;;;;;20605;6769;309514;-75
2022/12/07 04:12:16;;;;;;;9.27;8.68;;;7.20;52.80;;;;;;20590;6769;310323;-76
2022/12/07 04:14:52;;;;;;;7.50;6.90;;;7.40;52.40;;;;;;20843;6752;116965;-76
2022/12/07 04:17:28;;;;;;;9.60;8.70;;;7.20;52.60;;;;;;20676;6757;278682;-75
2022/12/07 04:20:04;;;;;;;9.65;8.95;;;7.10;52.90;;;;;;20684;6741;340562;-75
2022/12/07 04:22:40;;;;;;;8.40;7.60;;;7.00;52.80;;;;;;20799;6774;117402;-75
2022/12/07 04:25:17;;;;;;;10.18;9.40;;;7.00;52.80;;;;;;20602;6752;309035;-75
2022/12/07 04:27:53;;;;;;;9.60;8.83;;;7.00;53.30;;;;;;20667;6751;279132;-73
2022/12/07 04:30:28;;;;;;;8.80;8.10;;;7.10;53.10;;;;;;20882;6747;116973;-74
2022/12/07 04:33:04;;;;;;;8.30;7.60;;;7.00;53.30;;;;;;20896;6746;118219;-73
2022/12/07 04:35:39;;;;;;;9.48;8.82;;;6.60;53.80;;;;;;20618;6746;337109;-73
2022/12/07 04:38:15;;;;;;;7.93;7.20;;;6.60;54.00;;;;;;20893;6735;118319;-73
2022/12/07 04:40:51;;;;;;;8.13;7.50;;;6.30;55.10;;;;;;20923;6734;119076;-76
2022/12/07 04:43:27;;;;;;;10.38;9.57;;;6.20;54.30;;;;;;20666;6748;278453;-76
2022/12/07 04:46:02;;;;;;;10.67;9.87;;;6.30;54.60;;;;;;20588;6736;308732;-76
2022/12/07 04:48:38;;;;;;;10.17;9.37;;;6.60;54.20;;;;;;20577;6764;293593;-75
2022/12/07 04:51:23;;;;;;;8.50;7.80;;;6.70;53.70;;;;;;20932;6730;117040;-74
2022/12/07 04:53:59;;;;;;;10.17;9.47;;;6.70;53.70;;;;;;20674;6746;280845;-74
2022/12/07 04:56:35;;;;;;;10.85;10.00;;;6.70;53.80;;;;;;20588;6715;307174;-74
2022/12/07 04:59:13;;;;;;;10.18;9.38;;;6.80;53.30;;;;;;20673;6716;305873;-73
2022/12/07 05:01:49;;;;;;;7.67;7.07;;;7.00;53.10;;;;;;20868;6735;117400;-73
2022/12/07 05:04:24;;;;;;;9.20;8.60;;;6.80;53.30;;;;;;20585;6751;279866;-74
2022/12/07 05:07:00;;;;;;;9.80;9.10;;;6.90;52.90;;;;;;20558;6764;309421;-74
2022/12/07 05:09:36;;;;;;;9.20;8.52;;;6.90;52.80;;;;;;20691;6739;308068;-73
2022/12/07 05:12:12;;;;;;;8.75;8.15;;;7.00;52.40;;;;;;20593;6725;280863;-74
2022/12/07 05:14:47;;;;;;;7.77;7.17;;;7.10;52.00;;;;;;20859;6740;116910;-74
2022/12/07 05:17:23;;;;;;;9.80;9.00;;;6.80;52.30;;;;;;20663;6749;335276;-74
2022/12/07 05:19:58;;;;;;;8.27;7.67;;;6.60;52.20;;;;;;20844;6766;118118;-74
2022/12/07 05:22:34;;;;;;;8.83;8.13;;;6.40;52.50;;;;;;20658;6750;280450;-74
2022/12/07 05:25:10;;;;;;;9.13;8.43;;;6.30;52.70;;;;;;20601;6759;339275;-74
2022/12/07 05:27:46;;;;;;;7.57;6.97;;;6.50;52.30;;;;;;20873;6743;116998;-74
2022/12/07 05:30:21;;;;;;;9.73;9.13;;;6.30;52.40;;;;;;20702;6736;307709;-77
2022/12/07 05:32:57;;;;;;;9.40;8.70;;;6.20;52.60;;;;;;20631;6751;282129;-77
2022/12/07 05:35:32;;;;;;;9.60;8.90;;;6.40;52.40;;;;;;20595;6750;286563;-71
2022/12/07 05:38:08;;;;;;;9.63;8.93;;;6.50;52.10;;;;;;20609;6756;306778;-77
2022/12/07 05:40:43;;;;;;;9.73;9.02;;;6.60;51.90;;;;;;20579;6785;337357;-74
2022/12/07 05:43:19;;;;;;;7.87;7.27;;;6.60;51.60;;;;;;20889;6740;121489;-75
2022/12/07 05:45:55;;;;;;;9.88;9.07;;;6.30;52.00;;;;;;20499;6773;309904;-74
2022/12/07 05:48:30;;;;;;;9.27;8.57;;;6.10;52.40;;;;;;20641;6755;306595;-74
2022/12/07 05:51:06;;;;;;;7.67;7.13;;;6.20;52.40;;;;;;20812;6773;117491;-74
2022/12/07 05:53:41;;;;;;;9.40;8.60;;;6.00;52.60;;;;;;20534;6780;339155;-73
2022/12/07 05:56:17;;;;;;;9.93;9.18;;;5.90;52.90;;;;;;20457;6773;339874;-75
2022/12/07 06:01:54;;;;;;;7.83;7.13;;;5.80;52.70;;;;;;20947;6718;117404;-74
2022/12/07 06:04:30;;;;;;;7.87;7.27;;;5.40;53.30;;;;;;20868;6739;117305;-75
2022/12/07 06:07:05;;;;;;;10.45;9.55;;;5.00;53.90;;;;;;20721;6742;336084;-75
2022/12/07 06:09:42;;;;;;;11.32;10.40;;;5.30;54.50;;;;;;20748;6718;276195;-74
2022/12/07 06:12:33;;;;;;;9.17;8.23;;;5.30;54.40;;;;;;20871;6754;118773;-73
2022/12/07 06:15:09;;;;;;;10.07;9.27;;;5.20;54.20;;;;;;20631;6745;312244;-73
2022/12/07 06:17:45;;;;;;;11.12;10.23;;;5.30;54.50;;;;;;20705;6740;334530;-74
2022/12/07 06:20:21;;;;;;;9.50;8.70;;;5.30;54.10;;;;;;20877;6740;119577;-74
2022/12/07 06:22:58;;;;;;;10.68;9.88;;;5.20;54.10;;;;;;20719;6742;275792;-74
2022/12/07 06:25:34;;;;;;;11.47;10.57;;;5.20;54.40;;;;;;20540;6768;280504;-74
2022/12/07 06:28:09;;;;;;;9.83;9.03;;;5.40;54.20;;;;;;20852;6761;117156;-77
2022/12/07 06:30:45;;;;;;;10.90;10.10;;;5.20;54.10;;;;;;20662;6761;335853;-72
2022/12/07 06:33:20;;;;;;;9.23;8.37;;;5.20;54.40;;;;;;20834;6766;117196;-73
2022/12/07 06:35:57;;;;;;;7.60;6.90;;;4.70;54.60;;;;;;20702;6769;117798;-74
2022/12/07 06:38:33;;;;;;;10.35;9.50;;;4.80;55.20;;;;;;20616;6763;280339;-73
2022/12/07 06:41:08;;;;;;;10.35;9.55;;;4.80;55.20;;;;;;20678;6752;306129;-72
2022/12/07 06:43:44;;;;;;;9.67;9.00;;;5.10;54.50;;;;;;20610;6762;300464;-75
2022/12/07 06:46:20;;;;;;;9.87;9.10;;;5.40;54.10;;;;;;20490;6771;308235;-76
2022/12/07 06:48:55;;;;;;;10.10;9.40;;;5.60;53.70;;;;;;20619;6770;279762;-74
2022/12/07 06:51:35;;;;;;;11.07;10.27;;;5.90;52.70;;;;;;20624;6781;276794;-72
2022/12/07 06:54:07;;;;;;;9.70;8.90;;;5.90;52.70;;;;;;20881;6771;119578;-74
2022/12/07 06:56:44;;;;;;;10.27;9.37;;;5.30;53.40;;;;;;20704;6749;117542;-73
2022/12/07 06:59:20;;;;;;;10.80;9.93;;;5.40;54.00;;;;;;20537;6798;308113;-77
2022/12/07 07:01:55;;;;;;;8.93;8.13;;;5.30;53.80;;;;;;20773;6783;117664;-73
2022/12/07 07:04:32;;;;;;;8.57;7.87;;;5.00;54.40;;;;;;20804;6783;118663;-72
2022/12/07 07:07:11;;;;;;;6.77;5.67;;;5.00;54.40;;;;;;20834;6779;118157;-71
2022/12/07 07:09:44;;;;;;;9.93;8.40;;;4.80;55.10;;;;;;20849;6773;120394;-71
2022/12/07 07:12:21;;;;;;;9.17;8.37;;;4.70;56.50;;;;;;20792;6773;117989;-72
2022/12/07 07:14:59;;;;;;;7.77;7.07;;;4.70;56.30;;;;;;20825;6758;118850;-72
2022/12/07 07:17:33;;;;;;;9.70;8.90;;;5.00;56.10;;;;;;20652;6752;334448;-72
2022/12/07 07:20:09;;;;;;;9.90;9.10;;;5.00;56.00;;;;;;20657;6761;306050;-72
2022/12/07 07:22:45;;;;;;;9.48;8.88;;;5.90;54.50;;;;;;20636;6764;306781;-72
2022/12/07 07:25:23;;;;;;;7.87;7.27;;;5.90;55.10;;;;;;20815;6752;118094;-70
2022/12/07 07:28:05;;;;;;;6.67;6.27;;;6.00;54.60;;;;;;20909;6745;116759;-71
2022/12/07 07:30:32;;;;;;;7.47;6.93;;;5.80;54.90;;;;;;20841;6762;120447;-70
2022/12/07 07:33:13;;;;;;;8.10;7.60;;;5.70;55.20;;;;;;20569;6794;337703;-71
2022/12/07 07:35:45;;;;;;;8.13;7.53;;;6.20;54.00;;;;;;20576;6764;310269;-69
2022/12/07 07:38:20;;;;;;;6.37;5.87;;;6.30;53.90;;;;;;20971;6730;119064;-72
2022/12/07 07:40:57;;;;;;;5.87;5.47;;;6.10;53.90;;;;;;20888;6750;116887;-71
2022/12/07 07:43:32;;;;;;;5.93;5.53;;;6.10;53.90;;;;;;20876;6750;117796;-70
2022/12/07 07:46:08;;;;;;;7.23;6.73;;;5.90;54.30;;;;;;20590;6755;331591;-71
2022/12/07 07:48:45;;;;;;;7.10;6.60;;;6.10;53.90;;;;;;20741;6741;307621;-70
2022/12/07 07:51:20;;;;;;;6.93;6.43;;;6.50;53.20;;;;;;20695;6755;296102;-70
2022/12/07 07:53:56;;;;;;;5.83;5.43;;;6.80;52.50;;;;;;20911;6741;117406;-70
2022/12/07 07:56:31;;;;;;;6.80;6.30;;;6.80;52.50;;;;;;20582;6722;307530;-71
2022/12/07 07:59:08;;;;;;;6.53;6.10;;;6.80;52.30;;;;;;20978;6722;116875;-71
2022/12/07 08:01:43;;;;;;;5.87;5.47;;;6.80;52.60;;;;;;20978;6722;122225;-70
2022/12/07 08:04:18;;;;;;;6.07;5.67;;;6.60;53.10;;;;;;20949;6725;116911;-72
2022/12/07 08:06:54;;;;;;;7.60;7.10;;;6.40;53.50;;;;;;20728;6729;307229;-72
2022/12/07 08:09:29;;;;;;;7.47;7.07;;;6.50;53.20;;;;;;20726;6734;277612;-72
2022/12/07 08:12:06;;;;;;;6.80;6.40;;;6.90;52.40;;;;;;21015;6710;116749;-72
2022/12/07 08:14:41;;;;;;;7.83;7.23;;;6.90;52.40;;;;;;20958;6729;116824;-75
2022/12/07 08:17:17;;;;;;;6.93;6.23;;;6.70;52.50;;;;;;21034;6711;116684;-75
2022/12/07 08:19:53;;;;;;;5.97;5.57;;;6.10;53.10;;;;;;21027;6711;116617;-75
2022/12/07 08:22:29;;;;;;;6.90;6.30;;;6.10;53.10;;;;;;21000;6711;118013;-75
2022/12/07 08:25:05;;;;;;;7.37;6.77;;;5.90;53.50;;;;;;20980;6711;116712;-76
2022/12/07 08:27:42;;;;;;;9.37;8.60;;;5.90;53.80;;;;;;20749;6726;305460;-72
2022/12/07 08:30:18;;;;;;;7.70;7.10;;;6.00;53.50;;;;;;20956;6711;117240;-72
2022/12/07 08:32:55;;;;;;;9.70;9.00;;;6.10;53.70;;;;;;20774;6714;305955;-71
2022/12/07 08:35:30;;;;;;;9.48;8.85;;;6.10;53.70;;;;;;20643;6732;278526;-71
2022/12/07 08:38:07;;;;;;;9.80;9.00;;;6.40;53.20;;;;;;20692;6745;277526;-70
2022/12/07 08:40:44;;;;;;;8.00;7.40;;;6.60;53.30;;;;;;20941;6732;116890;-70
2022/12/07 08:43:19;;;;;;;9.70;8.88;;;6.60;52.70;;;;;;20684;6747;305855;-71
2022/12/07 08:46:01;;;;;;;10.18;9.38;;;6.60;52.70;;;;;;20569;6747;307619;-71
2022/12/07 08:48:49;;;;;;;9.57;8.77;;;6.80;52.50;;;;;;20862;6792;117502;-75
2022/12/07 08:51:25;;;;;;;9.75;9.05;;;6.70;52.70;;;;;;20701;6736;305796;-75
2022/12/07 08:54:00;;;;;;;9.60;8.90;;;6.70;52.90;;;;;;20605;6770;307600;-73
2022/12/07 08:56:36;;;;;;;9.63;8.93;;;6.90;52.70;;;;;;20446;6764;310580;-72
2022/12/07 08:59:13;;;;;;;9.70;9.00;;;7.10;52.30;;;;;;20677;6736;277506;-73
2022/12/07 09:01:48;;;;;;;10.03;9.23;;;7.30;51.90;;;;;;20709;6741;276702;-72
2022/12/07 09:04:24;;;;;;;8.10;7.50;;;7.40;51.70;;;;;;20873;6732;116975;-72
2022/12/07 09:07:00;;;;;;;8.17;7.43;;;7.20;52.00;;;;;;20738;6795;117387;-72
2022/12/07 09:09:35;;;;;;;8.63;7.93;;;6.80;52.60;;;;;;20888;6748;117168;-71
2022/12/07 09:12:12;;;;;;;9.97;9.17;;;6.60;53.30;;;;;;20695;6739;288984;-72
2022/12/07 09:14:47;;;;;;;8.50;7.90;;;6.60;53.30;;;;;;20904;6739;117077;-72
2022/12/07 09:17:23;;;;;;;9.77;9.10;;;6.60;53.30;;;;;;20757;6723;308092;-74
2022/12/07 09:20:00;;;;;;;10.63;9.80;;;6.70;53.30;;;;;;20706;6740;282781;-74
2022/12/07 09:22:36;;;;;;;6.68;6.28;;;7.00;53.20;;;;;;20687;6740;305759;-73
2022/12/07 09:25:12;;;;;;;6.20;5.80;;;7.30;53.30;;;;;;20829;6754;116983;-73
2022/12/07 09:27:49;;;;;;;5.57;5.17;;;7.20;54.20;;;;;;20816;6774;117746;-73
2022/12/07 09:30:25;;;;;;;5.93;5.47;;;7.20;54.20;;;;;;20805;6773;121284;-73
2022/12/07 09:33:02;;;;;;;7.13;6.53;;;7.10;54.60;;;;;;20650;6758;306973;-73
2022/12/07 09:35:49;;;;;;;7.13;6.63;;;7.80;52.50;;;;;;20599;6752;310372;-73
2022/12/07 09:38:26;;;;;;;5.97;5.57;;;7.80;52.50;;;;;;20918;6732;117701;-72
2022/12/07 09:41:04;;;;;;;6.70;6.10;;;7.90;52.50;;;;;;20977;6721;117199;-73
2022/12/07 09:43:41;;;;;;;6.90;6.37;;;7.70;52.70;;;;;;20920;6736;116854;-74
2022/12/07 09:46:18;;;;;;;7.10;6.60;;;7.50;53.60;;;;;;20667;6753;117399;-75
2022/12/07 09:48:55;;;;;;;7.10;6.50;;;7.50;53.50;;;;;;20929;6738;117178;-72
2022/12/07 09:51:31;;;;;;;6.80;6.30;;;7.40;53.60;;;;;;20877;6751;117002;-74
2022/12/07 09:54:07;;;;;;;6.60;6.10;;;7.30;53.80;;;;;;20894;6749;116676;-76
2022/12/07 09:56:43;;;;;;;6.17;5.67;;;7.30;54.10;;;;;;20757;6749;117343;-75
2022/12/07 09:59:22;;;;;;;7.05;6.65;;;7.60;53.40;;;;;;20748;6735;306394;-76
2022/12/07 10:01:56;;;;;;;7.60;6.90;;;7.60;53.10;;;;;;20936;6720;117350;-77
2022/12/07 10:04:32;;;;;;;7.63;6.97;;;7.80;52.80;;;;;;20791;6746;124209;-74
2022/12/07 10:07:07;;;;;;;14.33;11.70;;;7.70;52.80;;;;;;20940;6731;117284;-74
2022/12/07 10:09:44;;;;;;;9.33;6.93;;;7.40;52.80;;;;;;20940;6731;116961;-73
2022/12/07 10:12:19;;;;;;;6.63;6.17;;;7.40;52.70;;;;;;20858;6742;127449;-73
2022/12/07 10:15:14;;;;;;;6.93;6.33;;;7.30;52.80;;;;;;20894;6731;116802;-74
2022/12/07 10:17:38;;;;;;;7.70;7.20;;;7.10;52.80;;;;;;20756;6713;276607;-75
2022/12/07 10:20:12;;;;;;;7.33;6.83;;;7.30;51.30;;;;;;20775;6713;307649;-76
2022/12/07 10:22:54;;;;;;;6.47;6.03;;;7.70;50.20;;;;;;21008;6713;116013;-76
2022/12/07 10:25:32;;;;;;;6.97;6.47;;;7.70;50.50;;;;;;20929;6713;117191;-73
2022/12/07 10:28:15;;;;;;;6.80;6.37;;;7.60;51.00;;;;;;20745;6713;304742;-72
2022/12/07 10:30:59;;;;;;;7.00;6.50;;;7.70;50.00;;;;;;20677;6746;309475;-72
2022/12/07 10:33:37;;;;;;;6.50;6.10;;;8.10;48.90;;;;;;20724;6731;308512;-71
2022/12/07 10:36:26;;;;;;;6.45;5.95;;;8.40;48.10;;;;;;20566;6731;326547;-71
2022/12/07 10:39:03;;;;;;;6.33;5.80;;;8.70;46.10;;;;;;20731;6731;279786;-72
2022/12/07 10:41:58;;;;;;;6.60;6.00;;;8.70;46.30;;;;;;20735;6731;291918;-73
2022/12/07 10:44:36;;;;;;;6.00;5.50;;;9.00;45.10;;;;;;20662;6746;306112;-72
2022/12/07 10:47:32;;;;;;;5.10;4.70;;;8.90;45.00;;;;;;20944;6732;116614;-72
2022/12/07 10:50:31;;;;;;;5.75;5.45;;;8.70;45.90;;;;;;20607;6764;323526;-74
2022/12/07 10:53:36;;;;;;;4.87;4.57;;;8.60;45.80;;;;;;20826;6766;117391;-72
2022/12/07 10:56:35;;;;;;;6.50;5.90;;;8.50;45.60;;;;;;20576;6731;308549;-72
2022/12/07 10:59:14;;;;;;;5.53;5.03;;;8.40;45.90;;;;;;20937;6735;116778;-71
2022/12/07 11:02:08;;;;;;;6.70;6.10;;;8.30;46.80;;;;;;20685;6746;335699;-71
2022/12/07 11:04:56;;;;;;;5.83;5.47;;;8.30;46.50;;;;;;19820;7094;118988;-73
2022/12/07 11:07:46;;;;;;;5.90;5.50;;;8.00;47.90;;;;;;20847;6760;117241;-73
2022/12/07 11:10:39;;;;;;;6.33;5.93;;;7.90;47.80;;;;;;20688;6746;336985;-77
2022/12/07 11:13:10;;;;;;;5.97;5.37;;;8.10;47.10;;;;;;20941;6735;117572;-72
2022/12/07 11:15:55;;;;;;;5.53;5.03;;;8.10;47.70;;;;;;20441;6821;118107;-74
2022/12/07 11:18:59;;;;;;;5.70;5.30;;;7.90;48.20;;;;;;20874;6744;118182;-71
2022/12/07 11:21:41;;;;;;;5.87;5.47;;;7.70;48.70;;;;;;20825;6756;116123;-73
2022/12/07 11:24:20;;;;;;;6.60;6.10;;;7.60;49.30;;;;;;20644;6771;275643;-73
2022/12/07 11:27:19;;;;;;;6.20;5.70;;;7.80;48.50;;;;;;20457;6820;330079;-72
2022/12/07 11:30:17;;;;;;;6.10;5.70;;;8.30;47.10;;;;;;20677;6749;277078;-72
2022/12/07 11:32:53;;;;;;;6.43;6.03;;;8.70;45.90;;;;;;20643;6749;277125;-73
2022/12/07 11:35:54;;;;;;;6.20;5.87;;;8.90;45.70;;;;;;20566;6746;311387;-73
2022/12/07 11:38:53;;;;;;;6.60;6.10;;;9.10;45.20;;;;;;20726;6731;305884;-73
2022/12/07 11:41:25;;;;;;;6.85;6.25;;;9.30;44.80;;;;;;20747;6728;305099;-72
2022/12/07 11:44:04;;;;;;;6.50;6.00;;;9.40;44.60;;;;;;20743;6728;306009;-71
2022/12/07 11:46:52;;;;;;;7.60;6.05;;;9.50;44.30;;;;;;20574;6728;307496;-75
2022/12/07 11:49:49;;;;;;;6.23;5.83;;;9.70;44.50;;;;;;20727;6734;306287;-76
2022/12/07 11:52:25;;;;;;;5.90;5.50;;;9.80;44.20;;;;;;19645;7078;351985;-73
2022/12/07 11:55:01;;;;;;;9.73;5.03;;;9.80;44.20;;;;;;20520;6816;116828;-73
2022/12/07 11:57:37;;;;;;;6.13;5.73;;;9.50;45.00;;;;;;20669;6749;306048;-74
2022/12/07 12:00:14;;;;;;;6.47;5.97;;;9.40;45.00;;;;;;20674;6745;277805;-75
2022/12/07 12:03:09;;;;;;;5.40;5.00;;;9.60;44.80;;;;;;20686;6745;338237;-76
2022/12/07 12:05:45;;;;;;;4.87;4.57;;;9.70;44.70;;;;;;20785;6801;116805;-70
2022/12/07 12:08:25;;;;;;;6.20;5.85;;;9.40;45.50;;;;;;20717;6730;336246;-71
2022/12/07 12:11:20;;;;;;;5.72;5.35;;;9.40;45.30;;;;;;20683;6797;335218;-76
2022/12/07 12:14:12;;;;;;;6.30;5.90;;;9.60;45.00;;;;;;20705;6741;277327;-77
2022/12/07 12:16:49;;;;;;;6.45;5.97;;;9.80;44.50;;;;;;20505;6798;339953;-76
2022/12/07 12:19:51;;;;;;;4.63;4.33;;;9.80;44.20;;;;;;20856;6760;119980;-75
2022/12/07 12:22:28;;;;;;;6.27;5.87;;;9.50;45.00;;;;;;20626;6760;282664;-78
2022/12/07 12:25:03;;;;;;;4.63;4.33;;;9.40;44.80;;;;;;20849;6745;116888;-72
2022/12/07 12:27:39;;;;;;;4.60;4.30;;;9.20;45.40;;;;;;20890;6801;118743;-73
2022/12/07 12:30:35;;;;;;;5.50;5.10;;;8.60;47.10;;;;;;20859;6760;127123;-74
2022/12/07 12:33:30;;;;;;;6.73;6.30;;;8.80;46.80;;;;;;20647;6760;277089;-73
2022/12/07 12:36:15;;;;;;;5.77;5.13;;;8.70;47.00;;;;;;20764;6760;117942;-73
2022/12/07 12:38:53;;;;;;;5.53;5.23;;;8.70;47.00;;;;;;20694;6760;276626;-73
2022/12/07 12:44:32;;;;;;;4.77;4.47;;;8.60;47.70;;;;;;20177;6835;119593;-74
2022/12/07 12:47:29;;;;;;;4.73;4.30;;;8.60;47.60;;;;;;20901;6745;117694;-76
2022/12/07 12:50:15;;;;;;;4.97;4.47;;;8.20;48.50;;;;;;20798;6799;117299;-76
2022/12/07 12:53:17;;;;;;;4.73;4.33;;;8.20;48.50;;;;;;20905;6744;116914;-76
2022/12/07 12:56:17;;;;;;;4.90;4.40;;;8.00;49.30;;;;;;20817;6745;118050;-75
2022/12/07 12:58:54;;;;;;;4.80;4.50;;;8.00;49.30;;;;;;20899;6760;119883;-76
2022/12/07 13:01:34;;;;;;;4.90;4.57;;;8.00;49.60;;;;;;20862;6801;116722;-76
2022/12/07 13:04:32;;;;;;;6.00;5.60;;;7.90;49.80;;;;;;20677;6760;335665;-76
2022/12/07 13:07:11;;;;;;;5.17;4.77;;;8.20;48.70;;;;;;20864;6760;117197;-75
2022/12/07 13:09:47;;;;;;;6.17;5.70;;;8.30;48.80;;;;;;20693;6745;277542;-76
2022/12/07 13:12:22;;;;;;;6.20;5.80;;;8.60;48.00;;;;;;20723;6730;288246;-76
2022/12/07 13:15:01;;;;;;;5.30;5.00;;;8.90;47.40;;;;;;20829;6749;116633;-76
2022/12/07 13:17:34;;;;;;;5.00;4.70;;;8.90;47.30;;;;;;20848;6760;121158;-78
2022/12/07 13:20:11;;;;;;;5.23;4.73;;;8.70;47.90;;;;;;20872;6801;117921;-75
2022/12/07 13:22:46;;;;;;;6.05;5.65;;;8.50;48.40;;;;;;20552;6831;336667;-75
2022/12/07 13:25:45;;;;;;;4.80;4.40;;;8.60;47.50;;;;;;20841;6745;117236;-75
2022/12/07 13:28:21;;;;;;;5.10;4.73;;;8.60;47.70;;;;;;20900;6745;126604;-74
2022/12/07 13:31:23;;;;;;;5.03;4.63;;;8.20;48.70;;;;;;20895;6745;116773;-72
2022/12/07 13:34:00;;;;;;;6.00;5.60;;;8.50;47.80;;;;;;20729;6730;292211;-72
2022/12/07 13:36:38;;;;;;;6.75;6.28;;;8.50;47.80;;;;;;20553;6730;308425;-75
2022/12/07 13:39:15;;;;;;;5.87;5.47;;;8.80;46.80;;;;;;20731;6786;279309;-72
2022/12/07 13:41:55;;;;;;;5.72;5.40;;;9.20;46.70;;;;;;20726;6730;307815;-72
2022/12/07 13:44:30;;;;;;;5.37;5.00;;;9.40;46.20;;;;;;20845;6810;117825;-72
2022/12/07 13:47:09;;;;;;;4.67;4.37;;;9.00;47.30;;;;;;20915;6745;116743;-74
2022/12/07 13:49:51;;;;;;;5.87;5.47;;;9.00;47.30;;;;;;20697;6745;336385;-71